sensor_id;sensor_type;location;lat;lon;timestamp;pressure;altitude;pressure_sealevel;temperature;humidity
10706;BME280;5404;42.656;23.336;2023-04-27T00:00:25;94517.28;;;8.31;100.00
10706;BME280;5404;42.656;23.336;2023-04-27T00:02:52;94518.97;;;8.21;100.00
10706;BME280;5404;42.656;23.336;2023-04-27T00:05:17;94517.88;;;8.22;100.00
10706;BME280;5404;42.656;23.336;2023-04-27T00:07:43;94523.19;;;8.22;100.00
10706;BME280;5404;42.656;23.336;2023-04-27T00:10:09;94529.03;;;8.24;100.00
10706;BME280;5404;42.656;23.336;2023-04-27T00:12:34;94529.78;;;8.06;100.00
10706;BME280;5404;42.656;23.336;2023-04-27T00:15:00;94530.47;;;8.12;100.00
10706;BME280;5404;42.656;23.336;2023-04-27T00:17:25;94536.72;;;8.02;100.00
10706;BME280;5404;42.656;23.336;2023-04-27T00:19:51;94524.97;;;8.08;100.00
10706;BME280;5404;42.656;23.336;2023-04-27T00:22:17;94526.91;;;8.03;100.00
10706;BME280;5404;42.656;23.336;2023-04-27T00:24:43;94533.50;;;8.05;100.00
10706;BME280;5404;42.656;23.336;2023-04-27T00:27:09;94530.97;;;7.95;100.00
10706;BME280;5404;42.656;23.336;2023-04-27T00:29:40;94535.31;;;7.86;100.00
10706;BME280;5404;42.656;23.336;2023-04-27T00:32:08;94512.72;;;7.70;100.00
10706;BME280;5404;42.656;23.336;2023-04-27T00:34:34;94530.19;;;7.71;100.00
10706;BME280;5404;42.656;23.336;2023-04-27T00:37:00;94532.28;;;7.74;100.00
10706;BME280;5404;42.656;23.336;2023-04-27T00:39:25;94535.00;;;7.69;100.00
10706;BME280;5404;42.656;23.336;2023-04-27T00:41:51;94532.09;;;7.66;100.00
10706;BME280;5404;42.656;23.336;2023-04-27T00:44:24;94533.53;;;7.58;100.00
10706;BME280;5404;42.656;23.336;2023-04-27T00:46:50;94534.94;;;7.51;100.00
10706;BME280;5404;42.656;23.336;2023-04-27T00:49:16;94519.88;;;7.46;100.00
10706;BME280;5404;42.656;23.336;2023-04-27T00:51:42;94533.69;;;7.43;100.00
10706;BME280;5404;42.656;23.336;2023-04-27T00:54:08;94531.03;;;7.43;100.00
10706;BME280;5404;42.656;23.336;2023-04-27T00:56:33;94539.53;;;7.40;100.00
10706;BME280;5404;42.656;23.336;2023-04-27T00:58:59;94528.25;;;7.30;100.00
10706;BME280;5404;42.656;23.336;2023-04-27T01:01:25;94545.22;;;7.29;100.00
10706;BME280;5404;42.656;23.336;2023-04-27T01:03:52;94542.91;;;7.22;100.00
10706;BME280;5404;42.656;23.336;2023-04-27T01:06:17;94547.69;;;7.20;100.00
10706;BME280;5404;42.656;23.336;2023-04-27T01:08:43;94541.38;;;7.16;100.00
10706;BME280;5404;42.656;23.336;2023-04-27T01:11:10;94554.16;;;7.09;100.00
10706;BME280;5404;42.656;23.336;2023-04-27T01:13:36;94545.91;;;7.10;100.00
10706;BME280;5404;42.656;23.336;2023-04-27T01:16:01;94549.13;;;7.07;100.00
10706;BME280;5404;42.656;23.336;2023-04-27T01:18:26;94551.81;;;7.02;100.00
10706;BME280;5404;42.656;23.336;2023-04-27T01:20:53;94555.56;;;7.01;100.00
10706;BME280;5404;42.656;23.336;2023-04-27T01:23:20;94548.69;;;6.95;100.00
10706;BME280;5404;42.656;23.336;2023-04-27T01:25:45;94541.13;;;6.84;100.00
10706;BME280;5404;42.656;23.336;2023-04-27T01:28:11;94556.13;;;6.93;100.00
10706;BME280;5404;42.656;23.336;2023-04-27T01:30:36;94563.56;;;6.91;100.00
10706;BME280;5404;42.656;23.336;2023-04-27T01:33:02;94538.84;;;6.72;100.00
10706;BME280;5404;42.656;23.336;2023-04-27T01:35:28;94564.41;;;6.87;100.00
10706;BME280;5404;42.656;23.336;2023-04-27T01:37:53;94567.84;;;6.87;100.00
10706;BME280;5404;42.656;23.336;2023-04-27T01:40:18;94560.72;;;6.83;100.00
10706;BME280;5404;42.656;23.336;2023-04-27T01:42:44;94559.38;;;6.85;100.00
10706;BME280;5404;42.656;23.336;2023-04-27T01:45:10;94556.22;;;6.83;100.00
10706;BME280;5404;42.656;23.336;2023-04-27T01:47:36;94567.59;;;6.84;100.00
10706;BME280;5404;42.656;23.336;2023-04-27T01:50:02;94562.63;;;6.77;100.00
10706;BME280;5404;42.656;23.336;2023-04-27T01:52:28;94573.72;;;6.79;100.00
10706;BME280;5404;42.656;23.336;2023-04-27T01:54:53;94568.16;;;6.81;100.00
10706;BME280;5404;42.656;23.336;2023-04-27T01:57:20;94566.03;;;6.78;100.00
10706;BME280;5404;42.656;23.336;2023-04-27T01:59:45;94567.91;;;6.77;100.00
10706;BME280;5404;42.656;23.336;2023-04-27T02:02:11;94556.56;;;6.72;100.00
10706;BME280;5404;42.656;23.336;2023-04-27T02:04:36;94568.16;;;6.76;100.00
10706;BME280;5404;42.656;23.336;2023-04-27T02:07:02;94560.22;;;6.76;100.00
10706;BME280;5404;42.656;23.336;2023-04-27T02:09:27;94557.09;;;6.74;100.00
10706;BME280;5404;42.656;23.336;2023-04-27T02:11:54;94570.06;;;6.75;100.00
10706;BME280;5404;42.656;23.336;2023-04-27T02:14:19;94568.44;;;6.74;100.00
10706;BME280;5404;42.656;23.336;2023-04-27T02:16:45;94575.38;;;6.70;100.00
10706;BME280;5404;42.656;23.336;2023-04-27T02:19:10;94570.38;;;6.69;100.00
10706;BME280;5404;42.656;23.336;2023-04-27T02:21:36;94566.41;;;6.66;100.00
10706;BME280;5404;42.656;23.336;2023-04-27T02:24:03;94572.22;;;6.68;100.00
10706;BME280;5404;42.656;23.336;2023-04-27T02:26:29;94571.41;;;6.68;100.00
10706;BME280;5404;42.656;23.336;2023-04-27T02:28:55;94571.69;;;6.66;100.00
10706;BME280;5404;42.656;23.336;2023-04-27T02:31:23;94569.84;;;6.67;100.00
10706;BME280;5404;42.656;23.336;2023-04-27T02:33:49;94577.78;;;6.67;100.00
10706;BME280;5404;42.656;23.336;2023-04-27T02:36:14;94567.28;;;6.57;100.00
10706;BME280;5404;42.656;23.336;2023-04-27T02:38:41;94576.94;;;6.71;100.00
10706;BME280;5404;42.656;23.336;2023-04-27T02:41:07;94581.97;;;6.73;100.00
10706;BME280;5404;42.656;23.336;2023-04-27T02:43:32;94565.31;;;6.72;100.00
10706;BME280;5404;42.656;23.336;2023-04-27T02:46:01;94580.66;;;6.75;100.00
10706;BME280;5404;42.656;23.336;2023-04-27T02:48:27;94560.56;;;6.69;100.00
10706;BME280;5404;42.656;23.336;2023-04-27T02:50:52;94578.50;;;6.77;100.00
10706;BME280;5404;42.656;23.336;2023-04-27T02:53:18;94514.47;;;6.37;100.00
10706;BME280;5404;42.656;23.336;2023-04-27T02:55:45;94586.19;;;6.79;100.00
10706;BME280;5404;42.656;23.336;2023-04-27T02:58:13;94580.66;;;6.75;100.00
10706;BME280;5404;42.656;23.336;2023-04-27T03:00:39;94573.75;;;6.74;100.00
10706;BME280;5404;42.656;23.336;2023-04-27T03:03:06;94582.78;;;6.73;100.00
10706;BME280;5404;42.656;23.336;2023-04-27T03:05:32;94580.13;;;6.73;100.00
10706;BME280;5404;42.656;23.336;2023-04-27T03:07:57;94580.41;;;6.72;100.00
10706;BME280;5404;42.656;23.336;2023-04-27T03:10:36;94584.41;;;6.64;100.00
10706;BME280;5404;42.656;23.336;2023-04-27T03:13:02;94597.09;;;6.72;100.00
10706;BME280;5404;42.656;23.336;2023-04-27T03:15:27;94580.69;;;6.70;100.00
10706;BME280;5404;42.656;23.336;2023-04-27T03:17:53;94587.03;;;6.69;100.00
10706;BME280;5404;42.656;23.336;2023-04-27T03:20:20;94600.22;;;6.74;100.00
10706;BME280;5404;42.656;23.336;2023-04-27T03:22:45;94611.09;;;6.73;100.00
10706;BME280;5404;42.656;23.336;2023-04-27T03:25:11;94599.94;;;6.76;100.00
10706;BME280;5404;42.656;23.336;2023-04-27T03:27:36;94609.72;;;6.80;100.00
10706;BME280;5404;42.656;23.336;2023-04-27T03:30:02;94604.44;;;6.80;100.00
10706;BME280;5404;42.656;23.336;2023-04-27T03:32:28;94604.44;;;6.80;100.00
10706;BME280;5404;42.656;23.336;2023-04-27T03:34:54;94609.72;;;6.80;100.00
10706;BME280;5404;42.656;23.336;2023-04-27T03:37:21;94614.19;;;6.85;100.00
10706;BME280;5404;42.656;23.336;2023-04-27T03:39:47;94605.97;;;6.86;100.00
10706;BME280;5404;42.656;23.336;2023-04-27T03:42:12;94605.69;;;6.88;100.00
10706;BME280;5404;42.656;23.336;2023-04-27T03:44:38;94612.91;;;6.82;100.00
10706;BME280;5404;42.656;23.336;2023-04-27T03:47:04;94612.94;;;6.77;100.00
10706;BME280;5404;42.656;23.336;2023-04-27T03:49:36;94615.03;;;6.80;100.00
10706;BME280;5404;42.656;23.336;2023-04-27T03:52:02;94608.69;;;6.76;100.00
10706;BME280;5404;42.656;23.336;2023-04-27T03:54:28;94619.47;;;6.85;100.00
10706;BME280;5404;42.656;23.336;2023-04-27T03:56:53;94632.97;;;6.88;100.00
10706;BME280;5404;42.656;23.336;2023-04-27T03:59:20;94620.22;;;6.95;100.00
10706;BME280;5404;42.656;23.336;2023-04-27T04:01:45;94629.75;;;6.96;100.00
10706;BME280;5404;42.656;23.336;2023-04-27T04:04:11;94629.44;;;7.03;100.00
10706;BME280;5404;42.656;23.336;2023-04-27T04:06:37;94636.06;;;7.00;100.00
10706;BME280;5404;42.656;23.336;2023-04-27T04:09:02;94639.72;;;7.09;100.00
10706;BME280;5404;42.656;23.336;2023-04-27T04:11:28;94630.72;;;7.05;100.00
10706;BME280;5404;42.656;23.336;2023-04-27T04:13:54;94628.88;;;7.06;100.00
10706;BME280;5404;42.656;23.336;2023-04-27T04:16:20;94649.28;;;7.05;100.00
10706;BME280;5404;42.656;23.336;2023-04-27T04:18:46;94642.88;;;7.12;100.00
10706;BME280;5404;42.656;23.336;2023-04-27T04:21:11;94641.53;;;7.14;100.00
10706;BME280;5404;42.656;23.336;2023-04-27T04:23:37;94648.72;;;7.08;100.00
10706;BME280;5404;42.656;23.336;2023-04-27T04:26:05;94651.59;;;7.17;100.00
10706;BME280;5404;42.656;23.336;2023-04-27T04:28:30;94658.22;;;7.15;100.00
10706;BME280;5404;42.656;23.336;2023-04-27T04:30:56;94664.84;;;7.12;100.00
10706;BME280;5404;42.656;23.336;2023-04-27T04:33:21;94671.47;;;7.15;100.00
10706;BME280;5404;42.656;23.336;2023-04-27T04:35:49;94659.50;;;7.22;100.00
10706;BME280;5404;42.656;23.336;2023-04-27T04:38:16;94659.41;;;7.32;100.00
10706;BME280;5404;42.656;23.336;2023-04-27T04:40:42;94676.75;;;7.15;100.00
10706;BME280;5404;42.656;23.336;2023-04-27T04:43:09;94675.94;;;7.19;100.00
10706;BME280;5404;42.656;23.336;2023-04-27T04:45:35;94637.63;;;7.06;100.00
10706;BME280;5404;42.656;23.336;2023-04-27T04:48:01;94676.84;;;7.38;100.00
10706;BME280;5404;42.656;23.336;2023-04-27T04:50:28;94684.41;;;7.55;100.00
10706;BME280;5404;42.656;23.336;2023-04-27T04:52:53;94672.22;;;7.54;100.00
10706;BME280;5404;42.656;23.336;2023-04-27T04:55:19;94675.66;;;7.54;100.00
10706;BME280;5404;42.656;23.336;2023-04-27T04:57:44;94692.75;;;7.72;100.00
10706;BME280;5404;42.656;23.336;2023-04-27T05:00:11;94687.69;;;7.75;100.00
10706;BME280;5404;42.656;23.336;2023-04-27T05:02:38;94702.38;;;7.91;100.00
10706;BME280;5404;42.656;23.336;2023-04-27T05:05:04;94702.31;;;7.96;100.00
10706;BME280;5404;42.656;23.336;2023-04-27T05:07:29;94698.97;;;8.14;100.00
10706;BME280;5404;42.656;23.336;2023-04-27T05:09:55;94713.34;;;8.08;100.00
10706;BME280;5404;42.656;23.336;2023-04-27T05:12:20;94709.44;;;8.01;100.00
10706;BME280;5404;42.656;23.336;2023-04-27T05:14:46;94713.50;;;8.22;100.00
10706;BME280;5404;42.656;23.336;2023-04-27T05:17:12;94715.03;;;8.28;100.00
10706;BME280;5404;42.656;23.336;2023-04-27T05:19:38;94709.00;;;8.17;100.00
10706;BME280;5404;42.656;23.336;2023-04-27T05:22:03;94705.53;;;8.22;100.00
10706;BME280;5404;42.656;23.336;2023-04-27T05:24:29;94709.91;;;8.37;100.00
10706;BME280;5404;42.656;23.336;2023-04-27T05:26:54;94702.34;;;8.25;100.00
10706;BME280;5404;42.656;23.336;2023-04-27T05:29:21;94714.47;;;8.02;100.00
10706;BME280;5404;42.656;23.336;2023-04-27T05:31:48;94712.56;;;8.08;100.00
10706;BME280;5404;42.656;23.336;2023-04-27T05:34:13;94731.91;;;8.08;100.00
10706;BME280;5404;42.656;23.336;2023-04-27T05:36:39;94724.47;;;8.10;100.00
10706;BME280;5404;42.656;23.336;2023-04-27T05:39:06;94723.56;;;8.25;100.00
10706;BME280;5404;42.656;23.336;2023-04-27T05:41:32;94722.00;;;8.19;100.00
10706;BME280;5404;42.656;23.336;2023-04-27T05:43:57;94719.03;;;7.97;100.00
10706;BME280;5404;42.656;23.336;2023-04-27T05:46:24;94736.56;;;7.98;100.00
10706;BME280;5404;42.656;23.336;2023-04-27T05:48:49;94696.34;;;7.86;100.00
10706;BME280;5404;42.656;23.336;2023-04-27T05:51:15;94692.59;;;7.87;100.00
10706;BME280;5404;42.656;23.336;2023-04-27T05:53:41;94697.75;;;8.02;100.00
10706;BME280;5404;42.656;23.336;2023-04-27T05:56:09;94729.53;;;8.07;100.00
10706;BME280;5404;42.656;23.336;2023-04-27T05:58:36;94733.50;;;8.09;100.00
10706;BME280;5404;42.656;23.336;2023-04-27T06:01:03;94733.91;;;7.98;100.00
10706;BME280;5404;42.656;23.336;2023-04-27T06:03:29;94750.06;;;7.96;100.00
10706;BME280;5404;42.656;23.336;2023-04-27T06:05:57;94729.94;;;7.95;100.00
10706;BME280;5404;42.656;23.336;2023-04-27T06:08:23;94728.31;;;7.99;100.00
10706;BME280;5404;42.656;23.336;2023-04-27T06:10:50;94733.91;;;7.93;100.00
10706;BME280;5404;42.656;23.336;2023-04-27T06:13:16;94737.28;;;8.03;100.00
10706;BME280;5404;42.656;23.336;2023-04-27T06:15:42;94721.47;;;8.17;100.00
10706;BME280;5404;42.656;23.336;2023-04-27T06:18:09;94736.75;;;8.01;100.00
10706;BME280;5404;42.656;23.336;2023-04-27T06:20:34;94725.03;;;7.79;100.00
10706;BME280;5404;42.656;23.336;2023-04-27T06:23:00;94721.50;;;7.88;100.00
10706;BME280;5404;42.656;23.336;2023-04-27T06:25:26;94733.47;;;7.86;100.00
10706;BME280;5404;42.656;23.336;2023-04-27T06:27:56;94724.81;;;8.04;100.00
10706;BME280;5404;42.656;23.336;2023-04-27T06:30:22;94726.75;;;8.22;100.00
10706;BME280;5404;42.656;23.336;2023-04-27T06:32:51;94727.69;;;8.36;100.00
10706;BME280;5404;42.656;23.336;2023-04-27T06:35:17;94726.91;;;8.36;100.00
10706;BME280;5404;42.656;23.336;2023-04-27T06:37:42;94721.69;;;8.25;100.00
10706;BME280;5404;42.656;23.336;2023-04-27T06:40:09;94723.81;;;8.29;100.00
10706;BME280;5404;42.656;23.336;2023-04-27T06:42:35;94714.34;;;8.41;100.00
10706;BME280;5404;42.656;23.336;2023-04-27T06:45:00;94723.69;;;8.62;100.00
10706;BME280;5404;42.656;23.336;2023-04-27T06:47:26;94715.44;;;8.82;100.00
10706;BME280;5404;42.656;23.336;2023-04-27T06:49:51;94721.44;;;8.93;100.00
10706;BME280;5404;42.656;23.336;2023-04-27T06:52:17;94717.94;;;9.16;100.00
10706;BME280;5404;42.656;23.336;2023-04-27T06:54:42;94717.22;;;9.29;100.00
10706;BME280;5404;42.656;23.336;2023-04-27T06:57:08;94719.88;;;9.48;100.00
10706;BME280;5404;42.656;23.336;2023-04-27T06:59:33;94716.94;;;9.49;100.00
10706;BME280;5404;42.656;23.336;2023-04-27T07:01:59;94683.03;;;9.22;100.00
10706;BME280;5404;42.656;23.336;2023-04-27T07:04:24;94677.50;;;9.51;100.00
10706;BME280;5404;42.656;23.336;2023-04-27T07:06:50;94714.19;;;9.86;100.00
10706;BME280;5404;42.656;23.336;2023-04-27T07:09:15;94710.44;;;9.87;100.00
10706;BME280;5404;42.656;23.336;2023-04-27T07:11:41;94717.19;;;9.98;100.00
10706;BME280;5404;42.656;23.336;2023-04-27T07:14:07;94710.84;;;9.94;97.84
10706;BME280;5404;42.656;23.336;2023-04-27T07:16:34;94672.84;;;10.07;97.75
10706;BME280;5404;42.656;23.336;2023-04-27T07:19:02;94713.34;;;10.36;93.75
10706;BME280;5404;42.656;23.336;2023-04-27T07:21:29;94716.22;;;10.53;93.49
10706;BME280;5404;42.656;23.336;2023-04-27T07:23:55;94696.25;;;10.65;91.33
10706;BME280;5404;42.656;23.336;2023-04-27T07:26:21;94707.03;;;10.73;89.13
10706;BME280;5404;42.656;23.336;2023-04-27T07:28:49;94701.97;;;10.99;87.43
10706;BME280;5404;42.656;23.336;2023-04-27T07:31:15;94705.69;;;11.11;85.72
10706;BME280;5404;42.656;23.336;2023-04-27T07:33:42;94696.50;;;11.17;82.86
10706;BME280;5404;42.656;23.336;2023-04-27T07:36:07;94699.03;;;11.36;84.19
10706;BME280;5404;42.656;23.336;2023-04-27T07:38:33;94701.19;;;11.69;83.15
10706;BME280;5404;42.656;23.336;2023-04-27T07:40:59;94701.41;;;11.59;80.68
10706;BME280;5404;42.656;23.336;2023-04-27T07:43:26;94696.94;;;11.68;80.50
10706;BME280;5404;42.656;23.336;2023-04-27T07:45:52;94694.31;;;11.55;76.98
10706;BME280;5404;42.656;23.336;2023-04-27T07:48:19;94698.66;;;11.51;82.07
10706;BME280;5404;42.656;23.336;2023-04-27T07:50:45;94689.72;;;11.47;80.34
10706;BME280;5404;42.656;23.336;2023-04-27T07:53:11;94688.75;;;11.65;82.58
10706;BME280;5404;42.656;23.336;2023-04-27T07:55:37;94693.31;;;11.87;76.12
10706;BME280;5404;42.656;23.336;2023-04-27T07:58:03;94687.44;;;11.76;73.91
10706;BME280;5404;42.656;23.336;2023-04-27T08:00:28;94700.28;;;11.74;72.84
10706;BME280;5404;42.656;23.336;2023-04-27T08:02:54;94690.03;;;11.90;72.72
10706;BME280;5404;42.656;23.336;2023-04-27T08:05:19;94693.13;;;11.83;73.96
10706;BME280;5404;42.656;23.336;2023-04-27T08:07:45;94692.75;;;11.98;74.92
10706;BME280;5404;42.656;23.336;2023-04-27T08:10:11;94683.09;;;12.11;72.08
10706;BME280;5404;42.656;23.336;2023-04-27T08:12:36;94692.22;;;12.18;70.77
10706;BME280;5404;42.656;23.336;2023-04-27T08:15:04;94690.44;;;12.05;71.87
10706;BME280;5404;42.656;23.336;2023-04-27T08:17:29;94685.34;;;11.73;71.28
10706;BME280;5404;42.656;23.336;2023-04-27T08:19:55;94687.38;;;11.32;72.45
10706;BME280;5404;42.656;23.336;2023-04-27T08:22:20;94689.28;;;11.53;72.65
10706;BME280;5404;42.656;23.336;2023-04-27T08:24:46;94694.63;;;11.53;73.39
10706;BME280;5404;42.656;23.336;2023-04-27T08:27:11;94691.47;;;11.51;72.88
10706;BME280;5404;42.656;23.336;2023-04-27T08:29:43;94703.56;;;11.35;72.68
10706;BME280;5404;42.656;23.336;2023-04-27T08:32:08;94692.63;;;11.23;77.15
10706;BME280;5404;42.656;23.336;2023-04-27T08:34:35;94695.78;;;11.25;75.61
10706;BME280;5404;42.656;23.336;2023-04-27T08:37:02;94699.84;;;11.58;77.06
10706;BME280;5404;42.656;23.336;2023-04-27T08:39:28;94686.50;;;12.03;73.38
10706;BME280;5404;42.656;23.336;2023-04-27T08:41:55;94695.59;;;12.02;71.69
10706;BME280;5404;42.656;23.336;2023-04-27T08:44:21;94695.84;;;12.14;72.14
10706;BME280;5404;42.656;23.336;2023-04-27T08:46:46;94703.75;;;11.97;71.26
10706;BME280;5404;42.656;23.336;2023-04-27T08:49:12;94690.81;;;11.68;71.75
10706;BME280;5404;42.656;23.336;2023-04-27T08:51:37;94695.56;;;11.93;71.79
10706;BME280;5404;42.656;23.336;2023-04-27T08:54:03;94697.16;;;12.03;69.33
10706;BME280;5404;42.656;23.336;2023-04-27T08:56:29;94684.75;;;12.29;71.12
10706;BME280;5404;42.656;23.336;2023-04-27T08:58:55;94696.66;;;12.23;69.66
10706;BME280;5404;42.656;23.336;2023-04-27T09:01:22;94691.88;;;12.42;68.15
10706;BME280;5404;42.656;23.336;2023-04-27T09:03:48;94701.16;;;12.83;65.18
10706;BME280;5404;42.656;23.336;2023-04-27T09:06:31;94704.31;;;12.94;62.76
10706;BME280;5404;42.656;23.336;2023-04-27T09:08:59;94688.38;;;12.72;62.15
10706;BME280;5404;42.656;23.336;2023-04-27T09:11:31;94684.06;;;12.54;62.95
10706;BME280;5404;42.656;23.336;2023-04-27T09:13:59;94688.50;;;12.58;64.65
10706;BME280;5404;42.656;23.336;2023-04-27T09:16:26;94682.28;;;12.41;63.93
10706;BME280;5404;42.656;23.336;2023-04-27T09:18:54;94690.09;;;12.29;62.35
10706;BME280;5404;42.656;23.336;2023-04-27T09:21:28;94693.66;;;12.55;62.92
10706;BME280;5404;42.656;23.336;2023-04-27T09:23:55;94681.69;;;13.00;61.51
10706;BME280;5404;42.656;23.336;2023-04-27T09:26:23;94683.16;;;13.32;59.17
10706;BME280;5404;42.656;23.336;2023-04-27T09:28:50;94683.00;;;13.28;60.08
10706;BME280;5404;42.656;23.336;2023-04-27T09:31:17;94677.50;;;13.93;58.29
10706;BME280;5404;42.656;23.336;2023-04-27T09:33:44;94680.03;;;15.40;53.64
10706;BME280;5404;42.656;23.336;2023-04-27T09:36:12;94665.66;;;15.77;50.62
10706;BME280;5404;42.656;23.336;2023-04-27T09:38:38;94652.22;;;15.15;48.00
10706;BME280;5404;42.656;23.336;2023-04-27T09:41:04;94665.94;;;14.10;49.82
10706;BME280;5404;42.656;23.336;2023-04-27T09:43:29;94663.59;;;13.99;52.08
10706;BME280;5404;42.656;23.336;2023-04-27T09:45:56;94653.09;;;13.86;53.50
10706;BME280;5404;42.656;23.336;2023-04-27T09:48:23;94660.19;;;13.65;53.03
10706;BME280;5404;42.656;23.336;2023-04-27T09:50:50;94657.84;;;13.63;52.99
10706;BME280;5404;42.656;23.336;2023-04-27T09:53:18;94652.91;;;13.99;54.46
10706;BME280;5404;42.656;23.336;2023-04-27T10:07:03;94597.59;;;15.20;46.57
10706;BME280;5404;42.656;23.336;2023-04-27T10:09:45;94646.03;;;14.74;47.18
10706;BME280;5404;42.656;23.336;2023-04-27T10:12:22;94654.03;;;14.45;49.28
10706;BME280;5404;42.656;23.336;2023-04-27T10:14:55;94651.78;;;14.55;49.30
10706;BME280;5404;42.656;23.336;2023-04-27T10:17:32;94652.44;;;14.81;48.05
10706;BME280;5404;42.656;23.336;2023-04-27T10:20:00;94647.50;;;14.63;47.53
10706;BME280;5404;42.656;23.336;2023-04-27T10:22:44;94638.72;;;14.45;47.92
10706;BME280;5404;42.656;23.336;2023-04-27T10:28:16;94643.34;;;15.24;46.54
10706;BME280;5404;42.656;23.336;2023-04-27T10:30:46;94645.56;;;14.72;46.60
10706;BME280;5404;42.656;23.336;2023-04-27T10:33:18;94645.97;;;14.82;47.45
10706;BME280;5404;42.656;23.336;2023-04-27T10:35:52;94641.94;;;14.68;47.63
10706;BME280;5404;42.656;23.336;2023-04-27T10:38:21;94640.00;;;15.06;46.44
10706;BME280;5404;42.656;23.336;2023-04-27T10:40:58;94641.69;;;15.31;45.37
10706;BME280;5404;42.656;23.336;2023-04-27T10:43:32;94639.56;;;15.45;45.09
10706;BME280;5404;42.656;23.336;2023-04-27T10:46:12;94622.84;;;15.19;45.12
10706;BME280;5404;42.656;23.336;2023-04-27T10:48:39;94649.34;;;14.71;46.25
10706;BME280;5404;42.656;23.336;2023-04-27T10:51:05;94637.50;;;14.72;45.86
10706;BME280;5404;42.656;23.336;2023-04-27T10:53:37;94645.59;;;14.63;46.57
10706;BME280;5404;42.656;23.336;2023-04-27T10:56:04;94463.00;;;12.97;47.98
10706;BME280;5404;42.656;23.336;2023-04-27T10:58:34;94644.94;;;14.37;47.06
10706;BME280;5404;42.656;23.336;2023-04-27T11:01:05;94634.81;;;15.01;46.92
10706;BME280;5404;42.656;23.336;2023-04-27T11:03:30;94628.91;;;15.90;45.19
10706;BME280;5404;42.656;23.336;2023-04-27T11:06:04;94622.31;;;16.44;41.65
10706;BME280;5404;42.656;23.336;2023-04-27T11:08:31;94625.53;;;16.38;41.40
10706;BME280;5404;42.656;23.336;2023-04-27T11:11:01;94618.53;;;16.12;41.01
10706;BME280;5404;42.656;23.336;2023-04-27T11:13:26;94620.56;;;15.30;42.43
10706;BME280;5404;42.656;23.336;2023-04-27T11:15:59;94634.09;;;14.63;43.44
10706;BME280;5404;42.656;23.336;2023-04-27T11:18:26;94637.19;;;14.73;44.15
10706;BME280;5404;42.656;23.336;2023-04-27T11:21:05;94636.44;;;14.64;44.11
10706;BME280;5404;42.656;23.336;2023-04-27T11:23:32;94631.22;;;14.68;45.52
10706;BME280;5404;42.656;23.336;2023-04-27T11:28:42;94639.19;;;14.01;45.62
10706;BME280;5404;42.656;23.336;2023-04-27T11:31:08;94638.84;;;14.11;47.04
10706;BME280;5404;42.656;23.336;2023-04-27T11:33:34;94626.97;;;14.21;46.80
10706;BME280;5404;42.656;23.336;2023-04-27T11:35:59;94635.25;;;14.45;46.84
10706;BME280;5404;42.656;23.336;2023-04-27T11:38:25;94642.00;;;14.59;46.70
10706;BME280;5404;42.656;23.336;2023-04-27T11:41:05;94628.63;;;14.80;47.34
10706;BME280;5404;42.656;23.336;2023-04-27T11:43:31;94644.78;;;15.21;45.49
10706;BME280;5404;42.656;23.336;2023-04-27T11:45:57;94640.59;;;15.32;44.74
10706;BME280;5404;42.656;23.336;2023-04-27T11:48:26;94642.38;;;15.49;43.82
10706;BME280;5404;42.656;23.336;2023-04-27T11:50:52;94638.84;;;15.57;44.17
10706;BME280;5404;42.656;23.336;2023-04-27T11:55:58;94639.59;;;15.16;43.72
10706;BME280;5404;42.656;23.336;2023-04-27T11:58:24;94650.44;;;14.99;43.55
10706;BME280;5404;42.656;23.336;2023-04-27T12:00:51;94641.00;;;14.93;44.51
10706;BME280;5404;42.656;23.336;2023-04-27T12:03:17;94661.38;;;14.94;43.62
10706;BME280;5404;42.656;23.336;2023-04-27T12:05:51;94658.22;;;14.92;44.36
10706;BME280;5404;42.656;23.336;2023-04-27T12:08:17;94653.09;;;14.78;43.95
10706;BME280;5404;42.656;23.336;2023-04-27T12:10:43;94663.28;;;14.56;45.22
10706;BME280;5404;42.656;23.336;2023-04-27T12:13:09;94655.28;;;14.47;45.64
10706;BME280;5404;42.656;23.336;2023-04-27T12:15:36;94665.16;;;14.09;46.75
10706;BME280;5404;42.656;23.336;2023-04-27T12:18:01;94663.25;;;14.18;47.61
10706;BME280;5404;42.656;23.336;2023-04-27T12:20:27;94634.50;;;13.89;46.15
10706;BME280;5404;42.656;23.336;2023-04-27T12:22:53;94661.91;;;13.78;45.50
10706;BME280;5404;42.656;23.336;2023-04-27T12:25:20;94661.59;;;13.45;46.60
10706;BME280;5404;42.656;23.336;2023-04-27T12:27:46;94663.03;;;13.51;47.46
10706;BME280;5404;42.656;23.336;2023-04-27T12:30:12;94666.97;;;13.54;48.01
10706;BME280;5404;42.656;23.336;2023-04-27T12:32:39;94659.88;;;13.32;48.66
10706;BME280;5404;42.656;23.336;2023-04-27T12:35:06;94627.94;;;13.19;50.20
10706;BME280;5404;42.656;23.336;2023-04-27T12:37:33;94661.75;;;13.66;49.54
10706;BME280;5404;42.656;23.336;2023-04-27T12:39:59;94665.81;;;13.97;48.76
10706;BME280;5404;42.656;23.336;2023-04-27T12:42:24;94660.41;;;14.15;47.85
10706;BME280;5404;42.656;23.336;2023-04-27T12:44:50;94668.31;;;14.02;48.51
10706;BME280;5404;42.656;23.336;2023-04-27T12:47:21;94677.63;;;13.96;48.95
10706;BME280;5404;42.656;23.336;2023-04-27T12:49:47;94669.19;;;13.69;48.73
10706;BME280;5404;42.656;23.336;2023-04-27T12:52:12;94672.78;;;13.30;49.03
10706;BME280;5404;42.656;23.336;2023-04-27T12:54:38;94678.13;;;13.13;50.05
10706;BME280;5404;42.656;23.336;2023-04-27T12:57:04;94669.28;;;13.04;50.00
10706;BME280;5404;42.656;23.336;2023-04-27T12:59:32;94668.16;;;12.97;51.51
10706;BME280;5404;42.656;23.336;2023-04-27T13:01:59;94655.94;;;12.56;51.48
10706;BME280;5404;42.656;23.336;2023-04-27T13:04:26;94662.69;;;12.62;50.99
10706;BME280;5404;42.656;23.336;2023-04-27T13:06:52;94660.84;;;12.71;51.38
10706;BME280;5404;42.656;23.336;2023-04-27T13:09:18;94630.16;;;12.52;51.29
10706;BME280;5404;42.656;23.336;2023-04-27T13:11:43;94659.97;;;12.93;52.39
10706;BME280;5404;42.656;23.336;2023-04-27T13:14:09;94671.72;;;13.48;50.87
10706;BME280;5404;42.656;23.336;2023-04-27T13:16:40;94660.34;;;13.77;49.16